sensor_id;sensor_type;location;lat;lon;timestamp;P1;durP1;ratioP1;P2;durP2;ratioP2
8040;SDS011;4063;48.140;10.250;2023-03-24T00:01:50;6.20;;;4.23;;
8040;SDS011;4063;48.140;10.250;2023-03-24T00:04:16;6.23;;;4.60;;
8040;SDS011;4063;48.140;10.250;2023-03-24T00:06:42;4.63;;;4.23;;
8040;SDS011;4063;48.140;10.250;2023-03-24T00:09:08;7.57;;;4.80;;
8040;SDS011;4063;48.140;10.250;2023-03-24T00:11:35;6.83;;;4.90;;
8040;SDS011;4063;48.140;10.250;2023-03-24T00:14:01;5.63;;;4.53;;
8040;SDS011;4063;48.140;10.250;2023-03-24T00:16:27;5.23;;;4.60;;
8040;SDS011;4063;48.140;10.250;2023-03-24T00:18:53;7.90;;;4.80;;
8040;SDS011;4063;48.140;10.250;2023-03-24T00:21:20;5.47;;;4.23;;
8040;SDS011;4063;48.140;10.250;2023-03-24T00:23:47;6.20;;;4.97;;
8040;SDS011;4063;48.140;10.250;2023-03-24T00:26:13;5.57;;;4.80;;
8040;SDS011;4063;48.140;10.250;2023-03-24T00:28:44;6.47;;;4.53;;
8040;SDS011;4063;48.140;10.250;2023-03-24T00:31:10;4.90;;;4.43;;
8040;SDS011;4063;48.140;10.250;2023-03-24T00:33:40;6.13;;;4.87;;
8040;SDS011;4063;48.140;10.250;2023-03-24T00:36:07;6.20;;;4.77;;
8040;SDS011;4063;48.140;10.250;2023-03-24T00:38:37;5.43;;;4.53;;
8040;SDS011;4063;48.140;10.250;2023-03-24T00:41:04;10.10;;;6.40;;
8040;SDS011;4063;48.140;10.250;2023-03-24T00:43:31;15.93;;;10.07;;
8040;SDS011;4063;48.140;10.250;2023-03-24T00:46:01;11.90;;;8.10;;
8040;SDS011;4063;48.140;10.250;2023-03-24T00:48:28;10.43;;;6.60;;
8040;SDS011;4063;48.140;10.250;2023-03-24T00:50:56;5.97;;;5.10;;
8040;SDS011;4063;48.140;10.250;2023-03-24T00:53:22;7.23;;;5.33;;
8040;SDS011;4063;48.140;10.250;2023-03-24T00:55:53;5.70;;;4.70;;
8040;SDS011;4063;48.140;10.250;2023-03-24T00:58:19;4.63;;;4.20;;
8040;SDS011;4063;48.140;10.250;2023-03-24T01:00:52;6.27;;;4.57;;
8040;SDS011;4063;48.140;10.250;2023-03-24T01:03:18;4.97;;;4.47;;
8040;SDS011;4063;48.140;10.250;2023-03-24T01:05:46;4.87;;;4.40;;
8040;SDS011;4063;48.140;10.250;2023-03-24T01:08:13;6.50;;;4.37;;
8040;SDS011;4063;48.140;10.250;2023-03-24T01:10:39;6.07;;;4.77;;
8040;SDS011;4063;48.140;10.250;2023-03-24T01:13:17;5.40;;;4.80;;
8040;SDS011;4063;48.140;10.250;2023-03-24T01:15:43;5.80;;;4.67;;
8040;SDS011;4063;48.140;10.250;2023-03-24T01:18:10;5.33;;;4.83;;
8040;SDS011;4063;48.140;10.250;2023-03-24T01:20:38;5.30;;;4.33;;
8040;SDS011;4063;48.140;10.250;2023-03-24T01:23:04;7.70;;;5.37;;
8040;SDS011;4063;48.140;10.250;2023-03-24T01:25:31;5.07;;;4.57;;
8040;SDS011;4063;48.140;10.250;2023-03-24T01:27:57;5.83;;;5.27;;
8040;SDS011;4063;48.140;10.250;2023-03-24T01:30:25;6.70;;;4.77;;
8040;SDS011;4063;48.140;10.250;2023-03-24T01:32:51;5.80;;;5.20;;
8040;SDS011;4063;48.140;10.250;2023-03-24T01:35:18;5.73;;;4.47;;
8040;SDS011;4063;48.140;10.250;2023-03-24T01:37:45;5.83;;;4.73;;
8040;SDS011;4063;48.140;10.250;2023-03-24T01:40:21;5.87;;;4.43;;
8040;SDS011;4063;48.140;10.250;2023-03-24T01:42:49;6.43;;;4.70;;
8040;SDS011;4063;48.140;10.250;2023-03-24T01:48:00;6.17;;;5.40;;
8040;SDS011;4063;48.140;10.250;2023-03-24T01:50:27;6.57;;;4.40;;
8040;SDS011;4063;48.140;10.250;2023-03-24T01:52:53;6.47;;;5.23;;
8040;SDS011;4063;48.140;10.250;2023-03-24T01:55:20;6.10;;;4.90;;
8040;SDS011;4063;48.140;10.250;2023-03-24T01:57:47;6.57;;;4.50;;
8040;SDS011;4063;48.140;10.250;2023-03-24T02:00:14;4.90;;;4.50;;
8040;SDS011;4063;48.140;10.250;2023-03-24T02:02:43;4.70;;;4.30;;
8040;SDS011;4063;48.140;10.250;2023-03-24T02:05:11;5.47;;;4.90;;
8040;SDS011;4063;48.140;10.250;2023-03-24T02:07:39;5.17;;;4.63;;
8040;SDS011;4063;48.140;10.250;2023-03-24T02:10:08;5.53;;;4.90;;
8040;SDS011;4063;48.140;10.250;2023-03-24T02:12:34;4.83;;;4.33;;
8040;SDS011;4063;48.140;10.250;2023-03-24T02:15:01;5.87;;;4.67;;
8040;SDS011;4063;48.140;10.250;2023-03-24T02:22:51;9.83;;;5.00;;
8040;SDS011;4063;48.140;10.250;2023-03-24T02:50:41;7.97;;;4.63;;
8040;SDS011;4063;48.140;10.250;2023-03-24T02:58:35;4.93;;;4.40;;
8040;SDS011;4063;48.140;10.250;2023-03-24T03:01:13;7.80;;;4.97;;
8040;SDS011;4063;48.140;10.250;2023-03-24T03:03:50;5.70;;;4.10;;
8040;SDS011;4063;48.140;10.250;2023-03-24T03:06:18;5.10;;;4.50;;
8040;SDS011;4063;48.140;10.250;2023-03-24T03:08:48;7.17;;;4.43;;
8040;SDS011;4063;48.140;10.250;2023-03-24T03:11:15;6.10;;;4.50;;
8040;SDS011;4063;48.140;10.250;2023-03-24T03:13:49;4.80;;;4.30;;
8040;SDS011;4063;48.140;10.250;2023-03-24T03:16:24;6.20;;;4.67;;
8040;SDS011;4063;48.140;10.250;2023-03-24T03:18:59;5.60;;;4.97;;
8040;SDS011;4063;48.140;10.250;2023-03-24T03:21:27;6.60;;;5.40;;
8040;SDS011;4063;48.140;10.250;2023-03-24T03:23:55;11.93;;;8.27;;
8040;SDS011;4063;48.140;10.250;2023-03-24T03:26:22;17.73;;;11.00;;
8040;SDS011;4063;48.140;10.250;2023-03-24T03:28:53;19.23;;;12.10;;
8040;SDS011;4063;48.140;10.250;2023-03-24T03:31:23;20.87;;;12.63;;
8040;SDS011;4063;48.140;10.250;2023-03-24T03:36:33;24.80;;;16.30;;
8040;SDS011;4063;48.140;10.250;2023-03-24T03:39:20;21.67;;;14.53;;
8040;SDS011;4063;48.140;10.250;2023-03-24T03:41:48;7.40;;;6.20;;
8040;SDS011;4063;48.140;10.250;2023-03-24T03:44:14;6.80;;;6.07;;
8040;SDS011;4063;48.140;10.250;2023-03-24T03:46:40;6.50;;;5.23;;
8040;SDS011;4063;48.140;10.250;2023-03-24T03:49:07;7.00;;;4.83;;
8040;SDS011;4063;48.140;10.250;2023-03-24T03:51:33;6.43;;;4.60;;
8040;SDS011;4063;48.140;10.250;2023-03-24T03:54:00;6.67;;;5.10;;
8040;SDS011;4063;48.140;10.250;2023-03-24T03:56:27;5.13;;;4.40;;
8040;SDS011;4063;48.140;10.250;2023-03-24T03:58:54;7.60;;;4.57;;
8040;SDS011;4063;48.140;10.250;2023-03-24T04:01:21;5.33;;;4.83;;
8040;SDS011;4063;48.140;10.250;2023-03-24T04:03:51;6.03;;;4.40;;
8040;SDS011;4063;48.140;10.250;2023-03-24T04:08:58;5.33;;;4.83;;
8040;SDS011;4063;48.140;10.250;2023-03-24T04:14:01;6.50;;;5.07;;
8040;SDS011;4063;48.140;10.250;2023-03-24T04:19:14;5.10;;;4.60;;
8040;SDS011;4063;48.140;10.250;2023-03-24T04:32:05;6.30;;;4.87;;
8040;SDS011;4063;48.140;10.250;2023-03-24T04:34:39;5.30;;;4.80;;
8040;SDS011;4063;48.140;10.250;2023-03-24T04:37:10;8.30;;;4.90;;
8040;SDS011;4063;48.140;10.250;2023-03-24T04:39:37;6.57;;;5.17;;
8040;SDS011;4063;48.140;10.250;2023-03-24T04:42:07;7.10;;;4.87;;
8040;SDS011;4063;48.140;10.250;2023-03-24T04:44:34;5.67;;;4.73;;
8040;SDS011;4063;48.140;10.250;2023-03-24T04:47:00;5.00;;;4.60;;
8040;SDS011;4063;48.140;10.250;2023-03-24T04:49:27;5.40;;;4.90;;
8040;SDS011;4063;48.140;10.250;2023-03-24T04:51:53;6.40;;;4.83;;
8040;SDS011;4063;48.140;10.250;2023-03-24T04:54:20;5.30;;;4.80;;
8040;SDS011;4063;48.140;10.250;2023-03-24T04:59:12;6.63;;;5.20;;
8040;SDS011;4063;48.140;10.250;2023-03-24T05:01:39;5.73;;;4.57;;
8040;SDS011;4063;48.140;10.250;2023-03-24T05:04:06;5.83;;;5.00;;
8040;SDS011;4063;48.140;10.250;2023-03-24T05:06:32;17.07;;;9.13;;
8040;SDS011;4063;48.140;10.250;2023-03-24T05:08:58;34.43;;;16.33;;
8040;SDS011;4063;48.140;10.250;2023-03-24T05:11:25;20.60;;;11.97;;
8040;SDS011;4063;48.140;10.250;2023-03-24T05:13:51;12.33;;;8.30;;
8040;SDS011;4063;48.140;10.250;2023-03-24T05:16:17;9.77;;;7.10;;
8040;SDS011;4063;48.140;10.250;2023-03-24T05:18:43;7.80;;;6.70;;
8040;SDS011;4063;48.140;10.250;2023-03-24T05:21:09;7.40;;;6.70;;
8040;SDS011;4063;48.140;10.250;2023-03-24T05:23:36;6.73;;;6.13;;
8040;SDS011;4063;48.140;10.250;2023-03-24T05:26:02;9.87;;;8.10;;
8040;SDS011;4063;48.140;10.250;2023-03-24T05:28:28;9.53;;;8.53;;
8040;SDS011;4063;48.140;10.250;2023-03-24T05:30:54;10.00;;;9.03;;
8040;SDS011;4063;48.140;10.250;2023-03-24T05:33:20;11.23;;;7.67;;
8040;SDS011;4063;48.140;10.250;2023-03-24T05:35:46;11.13;;;8.30;;
8040;SDS011;4063;48.140;10.250;2023-03-24T05:38:13;11.30;;;8.47;;
8040;SDS011;4063;48.140;10.250;2023-03-24T05:40:39;11.03;;;9.93;;
8040;SDS011;4063;48.140;10.250;2023-03-24T05:43:05;11.13;;;9.20;;
8040;SDS011;4063;48.140;10.250;2023-03-24T05:45:32;10.23;;;9.10;;
8040;SDS011;4063;48.140;10.250;2023-03-24T05:47:58;11.53;;;9.07;;
8040;SDS011;4063;48.140;10.250;2023-03-24T05:50:24;11.43;;;9.53;;
8040;SDS011;4063;48.140;10.250;2023-03-24T05:52:50;10.60;;;7.30;;
8040;SDS011;4063;48.140;10.250;2023-03-24T05:55:16;7.37;;;6.67;;
8040;SDS011;4063;48.140;10.250;2023-03-24T05:57:43;20.03;;;13.07;;
8040;SDS011;4063;48.140;10.250;2023-03-24T06:00:09;17.70;;;10.93;;
8040;SDS011;4063;48.140;10.250;2023-03-24T06:02:40;14.80;;;6.93;;
8040;SDS011;4063;48.140;10.250;2023-03-24T06:05:06;7.07;;;5.93;;
8040;SDS011;4063;48.140;10.250;2023-03-24T06:07:34;9.67;;;6.57;;
8040;SDS011;4063;48.140;10.250;2023-03-24T06:10:00;7.07;;;5.93;;
8040;SDS011;4063;48.140;10.250;2023-03-24T06:12:31;10.73;;;6.40;;
8040;SDS011;4063;48.140;10.250;2023-03-24T06:14:57;6.87;;;6.17;;
8040;SDS011;4063;48.140;10.250;2023-03-24T06:17:24;9.73;;;6.97;;
8040;SDS011;4063;48.140;10.250;2023-03-24T06:19:52;6.97;;;6.20;;
8040;SDS011;4063;48.140;10.250;2023-03-24T06:22:18;7.90;;;7.17;;
8040;SDS011;4063;48.140;10.250;2023-03-24T06:24:45;6.90;;;6.20;;
8040;SDS011;4063;48.140;10.250;2023-03-24T06:27:11;7.10;;;6.40;;
8040;SDS011;4063;48.140;10.250;2023-03-24T06:29:38;6.93;;;5.97;;
8040;SDS011;4063;48.140;10.250;2023-03-24T06:32:06;7.60;;;6.57;;
8040;SDS011;4063;48.140;10.250;2023-03-24T06:34:32;8.27;;;5.90;;
8040;SDS011;4063;48.140;10.250;2023-03-24T06:36:59;6.53;;;5.80;;
8040;SDS011;4063;48.140;10.250;2023-03-24T06:39:25;5.90;;;5.40;;
8040;SDS011;4063;48.140;10.250;2023-03-24T06:41:51;5.93;;;5.33;;
8040;SDS011;4063;48.140;10.250;2023-03-24T06:44:17;5.37;;;4.87;;
8040;SDS011;4063;48.140;10.250;2023-03-24T06:46:43;4.80;;;4.40;;
8040;SDS011;4063;48.140;10.250;2023-03-24T06:49:11;5.83;;;4.67;;
8040;SDS011;4063;48.140;10.250;2023-03-24T06:51:37;5.47;;;4.80;;
8040;SDS011;4063;48.140;10.250;2023-03-24T06:54:03;6.40;;;5.03;;
8040;SDS011;4063;48.140;10.250;2023-03-24T06:56:29;5.70;;;5.20;;
8040;SDS011;4063;48.140;10.250;2023-03-24T06:58:55;7.40;;;5.23;;
8040;SDS011;4063;48.140;10.250;2023-03-24T07:01:21;5.97;;;5.37;;
8040;SDS011;4063;48.140;10.250;2023-03-24T07:03:48;8.03;;;6.20;;
8040;SDS011;4063;48.140;10.250;2023-03-24T07:06:14;8.10;;;5.47;;
8040;SDS011;4063;48.140;10.250;2023-03-24T07:08:40;6.27;;;5.67;;
8040;SDS011;4063;48.140;10.250;2023-03-24T07:11:06;7.47;;;5.37;;
8040;SDS011;4063;48.140;10.250;2023-03-24T07:13:33;7.07;;;5.33;;
8040;SDS011;4063;48.140;10.250;2023-03-24T07:15:59;6.47;;;5.50;;
8040;SDS011;4063;48.140;10.250;2023-03-24T07:18:25;7.77;;;5.60;;
8040;SDS011;4063;48.140;10.250;2023-03-24T07:20:51;6.27;;;5.37;;
8040;SDS011;4063;48.140;10.250;2023-03-24T07:23:17;6.63;;;5.73;;
8040;SDS011;4063;48.140;10.250;2023-03-24T07:25:43;6.07;;;5.47;;
8040;SDS011;4063;48.140;10.250;2023-03-24T07:28:10;7.20;;;5.87;;
8040;SDS011;4063;48.140;10.250;2023-03-24T07:30:36;5.90;;;5.20;;
8040;SDS011;4063;48.140;10.250;2023-03-24T07:33:02;5.67;;;5.03;;
8040;SDS011;4063;48.140;10.250;2023-03-24T07:35:28;5.60;;;5.10;;
8040;SDS011;4063;48.140;10.250;2023-03-24T07:37:58;8.00;;;5.70;;
8040;SDS011;4063;48.140;10.250;2023-03-24T07:40:24;6.47;;;5.37;;
8040;SDS011;4063;48.140;10.250;2023-03-24T07:42:50;5.87;;;5.13;;
8040;SDS011;4063;48.140;10.250;2023-03-24T07:45:16;5.70;;;4.83;;
8040;SDS011;4063;48.140;10.250;2023-03-24T07:47:42;6.17;;;4.90;;
8040;SDS011;4063;48.140;10.250;2023-03-24T07:50:09;5.87;;;5.27;;
8040;SDS011;4063;48.140;10.250;2023-03-24T07:52:38;7.33;;;5.07;;
8040;SDS011;4063;48.140;10.250;2023-03-24T07:55:05;5.83;;;5.27;;
8040;SDS011;4063;48.140;10.250;2023-03-24T07:57:32;5.17;;;4.67;;
8040;SDS011;4063;48.140;10.250;2023-03-24T08:00:04;6.47;;;5.43;;
8040;SDS011;4063;48.140;10.250;2023-03-24T08:02:38;6.57;;;5.30;;
8040;SDS011;4063;48.140;10.250;2023-03-24T08:05:04;7.80;;;5.90;;
8040;SDS011;4063;48.140;10.250;2023-03-24T08:07:30;7.00;;;5.67;;
8040;SDS011;4063;48.140;10.250;2023-03-24T08:09:56;7.37;;;6.30;;
8040;SDS011;4063;48.140;10.250;2023-03-24T08:12:22;7.27;;;6.53;;
8040;SDS011;4063;48.140;10.250;2023-03-24T08:14:48;7.73;;;7.07;;
8040;SDS011;4063;48.140;10.250;2023-03-24T08:17:14;5.97;;;5.47;;
8040;SDS011;4063;48.140;10.250;2023-03-24T08:19:40;7.23;;;6.53;;
8040;SDS011;4063;48.140;10.250;2023-03-24T08:22:06;6.65;;;5.30;;
8040;SDS011;4063;48.140;10.250;2023-03-24T08:24:32;6.07;;;5.47;;
8040;SDS011;4063;48.140;10.250;2023-03-24T08:26:58;7.00;;;5.70;;
8040;SDS011;4063;48.140;10.250;2023-03-24T08:29:26;6.67;;;5.53;;
8040;SDS011;4063;48.140;10.250;2023-03-24T08:31:52;7.43;;;6.00;;
8040;SDS011;4063;48.140;10.250;2023-03-24T08:34:18;6.20;;;5.57;;
8040;SDS011;4063;48.140;10.250;2023-03-24T08:36:44;7.53;;;5.20;;
8040;SDS011;4063;48.140;10.250;2023-03-24T08:39:10;6.00;;;4.60;;
8040;SDS011;4063;48.140;10.250;2023-03-24T08:41:36;4.90;;;3.87;;
8040;SDS011;4063;48.140;10.250;2023-03-24T08:44:03;9.10;;;6.07;;
8040;SDS011;4063;48.140;10.250;2023-03-24T08:46:29;6.07;;;5.50;;
8040;SDS011;4063;48.140;10.250;2023-03-24T08:48:56;5.30;;;4.33;;
8040;SDS011;4063;48.140;10.250;2023-03-24T08:51:22;6.50;;;4.43;;
8040;SDS011;4063;48.140;10.250;2023-03-24T08:53:48;3.83;;;3.50;;
8040;SDS011;4063;48.140;10.250;2023-03-24T08:56:17;4.80;;;4.30;;
8040;SDS011;4063;48.140;10.250;2023-03-24T08:58:43;4.43;;;4.00;;
8040;SDS011;4063;48.140;10.250;2023-03-24T09:01:12;5.20;;;4.70;;
8040;SDS011;4063;48.140;10.250;2023-03-24T09:03:38;4.03;;;3.63;;
8040;SDS011;4063;48.140;10.250;2023-03-24T09:06:05;4.47;;;4.00;;
8040;SDS011;4063;48.140;10.250;2023-03-24T09:08:31;4.30;;;3.90;;
8040;SDS011;4063;48.140;10.250;2023-03-24T09:10:57;5.20;;;4.40;;
8040;SDS011;4063;48.140;10.250;2023-03-24T09:13:23;4.43;;;4.03;;
8040;SDS011;4063;48.140;10.250;2023-03-24T09:15:50;4.57;;;4.10;;
8040;SDS011;4063;48.140;10.250;2023-03-24T09:18:17;4.33;;;3.93;;
8040;SDS011;4063;48.140;10.250;2023-03-24T09:20:43;4.83;;;3.90;;
8040;SDS011;4063;48.140;10.250;2023-03-24T09:23:09;4.30;;;3.60;;
8040;SDS011;4063;48.140;10.250;2023-03-24T09:25:35;4.50;;;4.03;;
8040;SDS011;4063;48.140;10.250;2023-03-24T09:28:01;5.77;;;4.37;;
8040;SDS011;4063;48.140;10.250;2023-03-24T09:30:27;5.83;;;4.37;;
8040;SDS011;4063;48.140;10.250;2023-03-24T09:32:53;4.83;;;4.17;;
8040;SDS011;4063;48.140;10.250;2023-03-24T09:35:23;5.40;;;4.00;;
8040;SDS011;4063;48.140;10.250;2023-03-24T09:37:49;4.70;;;4.20;;
8040;SDS011;4063;48.140;10.250;2023-03-24T09:40:29;4.70;;;4.30;;
8040;SDS011;4063;48.140;10.250;2023-03-24T09:43:02;5.03;;;4.50;;
8040;SDS011;4063;48.140;10.250;2023-03-24T09:45:29;4.40;;;3.97;;
8040;SDS011;4063;48.140;10.250;2023-03-24T09:47:59;4.80;;;4.40;;
8040;SDS011;4063;48.140;10.250;2023-03-24T09:50:28;7.18;;;5.32;;
8040;SDS011;4063;48.140;10.250;2023-03-24T09:53:01;5.90;;;5.30;;
8040;SDS011;4063;48.140;10.250;2023-03-24T09:55:29;5.13;;;4.70;;
8040;SDS011;4063;48.140;10.250;2023-03-24T09:58:00;6.03;;;5.00;;
8040;SDS011;4063;48.140;10.250;2023-03-24T10:00:31;8.57;;;5.07;;
8040;SDS011;4063;48.140;10.250;2023-03-24T10:02:59;5.80;;;4.23;;
8040;SDS011;4063;48.140;10.250;2023-03-24T10:05:43;5.27;;;4.73;;
8040;SDS011;4063;48.140;10.250;2023-03-24T10:13:15;5.30;;;4.83;;
8040;SDS011;4063;48.140;10.250;2023-03-24T10:16:00;4.72;;;4.25;;
8040;SDS011;4063;48.140;10.250;2023-03-24T10:18:39;6.15;;;4.78;;
8040;SDS011;4063;48.140;10.250;2023-03-24T10:28:43;4.68;;;4.07;;
8040;SDS011;4063;48.140;10.250;2023-03-24T10:31:13;3.90;;;3.50;;
8040;SDS011;4063;48.140;10.250;2023-03-24T10:33:43;4.65;;;4.05;;
8040;SDS011;4063;48.140;10.250;2023-03-24T10:36:11;5.20;;;4.70;;
8040;SDS011;4063;48.140;10.250;2023-03-24T10:38:38;5.15;;;4.30;;
8040;SDS011;4063;48.140;10.250;2023-03-24T10:41:05;4.35;;;3.95;;
8040;SDS011;4063;48.140;10.250;2023-03-24T10:43:30;4.78;;;3.95;;
8040;SDS011;4063;48.140;10.250;2023-03-24T10:45:57;4.35;;;3.20;;
8040;SDS011;4063;48.140;10.250;2023-03-24T10:48:41;3.90;;;3.60;;
8040;SDS011;4063;48.140;10.250;2023-03-24T10:51:22;5.07;;;4.20;;
8040;SDS011;4063;48.140;10.250;2023-03-24T10:53:50;4.68;;;3.88;;
8040;SDS011;4063;48.140;10.250;2023-03-24T10:56:39;8.10;;;4.05;;
8040;SDS011;4063;48.140;10.250;2023-03-24T10:59:15;4.57;;;4.18;;
8040;SDS011;4063;48.140;10.250;2023-03-24T11:01:43;4.97;;;3.63;;
8040;SDS011;4063;48.140;10.250;2023-03-24T11:04:10;3.55;;;3.25;;
8040;SDS011;4063;48.140;10.250;2023-03-24T11:06:38;3.47;;;3.17;;
8040;SDS011;4063;48.140;10.250;2023-03-24T11:09:18;4.10;;;3.80;;
8040;SDS011;4063;48.140;10.250;2023-03-24T11:11:44;4.35;;;3.30;;
8040;SDS011;4063;48.140;10.250;2023-03-24T11:14:17;3.75;;;2.90;;
8040;SDS011;4063;48.140;10.250;2023-03-24T11:16:43;2.90;;;2.60;;
8040;SDS011;4063;48.140;10.250;2023-03-24T11:19:16;2.92;;;2.70;;
8040;SDS011;4063;48.140;10.250;2023-03-24T11:21:43;3.72;;;2.63;;
8040;SDS011;4063;48.140;10.250;2023-03-24T11:24:10;2.88;;;2.50;;
8040;SDS011;4063;48.140;10.250;2023-03-24T11:26:36;2.63;;;2.40;;
8040;SDS011;4063;48.140;10.250;2023-03-24T11:29:07;2.55;;;2.00;;
8040;SDS011;4063;48.140;10.250;2023-03-24T11:31:37;2.30;;;2.10;;
8040;SDS011;4063;48.140;10.250;2023-03-24T11:34:08;2.30;;;2.10;;
8040;SDS011;4063;48.140;10.250;2023-03-24T11:36:36;1.67;;;1.58;;
8040;SDS011;4063;48.140;10.250;2023-03-24T11:39:03;1.98;;;1.88;;
8040;SDS011;4063;48.140;10.250;2023-03-24T11:41:35;2.95;;;2.60;;
8040;SDS011;4063;48.140;10.250;2023-03-24T11:44:21;2.72;;;2.03;;
8040;SDS011;4063;48.140;10.250;2023-03-24T11:46:52;2.30;;;2.10;;
8040;SDS011;4063;48.140;10.250;2023-03-24T11:49:20;3.67;;;2.30;;
8040;SDS011;4063;48.140;10.250;2023-03-24T11:51:48;2.33;;;2.10;;
8040;SDS011;4063;48.140;10.250;2023-03-24T11:54:16;3.33;;;2.30;;
8040;SDS011;4063;48.140;10.250;2023-03-24T11:56:44;2.57;;;2.37;;
8040;SDS011;4063;48.140;10.250;2023-03-24T12:01:42;2.90;;;2.70;;
8040;SDS011;4063;48.140;10.250;2023-03-24T12:09:27;3.38;;;3.17;;
8040;SDS011;4063;48.140;10.250;2023-03-24T12:17:27;3.57;;;3.20;;
8040;SDS011;4063;48.140;10.250;2023-03-24T12:20:07;4.00;;;3.37;;
8040;SDS011;4063;48.140;10.250;2023-03-24T12:25:33;3.83;;;3.53;;
8040;SDS011;4063;48.140;10.250;2023-03-24T12:46:02;2.38;;;2.17;;
8040;SDS011;4063;48.140;10.250;2023-03-24T12:51:39;2.47;;;2.27;;
8040;SDS011;4063;48.140;10.250;2023-03-24T12:56:40;2.50;;;2.30;;
8040;SDS011;4063;48.140;10.250;2023-03-24T12:59:09;2.40;;;2.20;;
8040;SDS011;4063;48.140;10.250;2023-03-24T13:01:46;13.93;;;11.33;;
8040;SDS011;4063;48.140;10.250;2023-03-24T13:04:19;3.27;;;2.97;;
8040;SDS011;4063;48.140;10.250;2023-03-24T13:06:50;2.10;;;1.90;;
8040;SDS011;4063;48.140;10.250;2023-03-24T13:11:55;3.57;;;2.07;;
8040;SDS011;4063;48.140;10.250;2023-03-24T13:14:24;2.10;;;1.90;;
8040;SDS011;4063;48.140;10.250;2023-03-24T13:16:52;2.53;;;2.03;;
8040;SDS011;4063;48.140;10.250;2023-03-24T13:19:20;2.43;;;2.23;;
8040;SDS011;4063;48.140;10.250;2023-03-24T13:21:48;3.57;;;2.23;;
8040;SDS011;4063;48.140;10.250;2023-03-24T13:24:15;2.17;;;1.97;;
8040;SDS011;4063;48.140;10.250;2023-03-24T13:34:47;1.67;;;1.57;;
8040;SDS011;4063;48.140;10.250;2023-03-24T13:37:15;1.97;;;1.87;;
8040;SDS011;4063;48.140;10.250;2023-03-24T13:39:42;1.93;;;1.53;;
8040;SDS011;4063;48.140;10.250;2023-03-24T13:42:23;1.70;;;1.60;;
8040;SDS011;4063;48.140;10.250;2023-03-24T13:44:53;2.83;;;1.50;;
8040;SDS011;4063;48.140;10.250;2023-03-24T13:47:19;3.77;;;1.90;;
8040;SDS011;4063;48.140;10.250;2023-03-24T13:49:56;2.87;;;2.10;;
8040;SDS011;4063;48.140;10.250;2023-03-24T13:52:26;5.10;;;3.10;;
8040;SDS011;4063;48.140;10.250;2023-03-24T13:54:56;3.83;;;2.50;;
8040;SDS011;4063;48.140;10.250;2023-03-24T13:57:23;2.00;;;1.80;;
8040;SDS011;4063;48.140;10.250;2023-03-24T13:59:57;4.23;;;2.63;;
8040;SDS011;4063;48.140;10.250;2023-03-24T14:05:11;2.70;;;2.17;;
8040;SDS011;4063;48.140;10.250;2023-03-24T14:17:53;3.20;;;2.90;;
8040;SDS011;4063;48.140;10.250;2023-03-24T14:20:25;4.07;;;3.10;;
8040;SDS011;4063;48.140;10.250;2023-03-24T14:22:52;3.30;;;3.00;;
8040;SDS011;4063;48.140;10.250;2023-03-24T14:25:22;2.80;;;2.60;;
8040;SDS011;4063;48.140;10.250;2023-03-24T14:27:50;2.40;;;2.20;;
8040;SDS011;4063;48.140;10.250;2023-03-24T14:32:43;3.00;;;1.93;;
8040;SDS011;4063;48.140;10.250;2023-03-24T14:35:43;4.83;;;2.20;;
8040;SDS011;4063;48.140;10.250;2023-03-24T14:38:03;1.90;;;1.70;;
8040;SDS011;4063;48.140;10.250;2023-03-24T14:40:37;2.20;;;2.00;;
8040;SDS011;4063;48.140;10.250;2023-03-24T14:43:11;1.60;;;1.50;;
8040;SDS011;4063;48.140;10.250;2023-03-24T14:45:41;2.10;;;1.90;;
8040;SDS011;4063;48.140;10.250;2023-03-24T14:48:20;1.73;;;1.53;;
8040;SDS011;4063;48.140;10.250;2023-03-24T14:50:48;2.13;;;1.90;;
8040;SDS011;4063;48.140;10.250;2023-03-24T14:53:17;2.93;;;1.60;;
8040;SDS011;4063;48.140;10.250;2023-03-24T14:55:44;2.20;;;1.63;;
8040;SDS011;4063;48.140;10.250;2023-03-24T15:00:46;1.90;;;1.40;;
8040;SDS011;4063;48.140;10.250;2023-03-24T15:03:18;2.13;;;1.43;;
8040;SDS011;4063;48.140;10.250;2023-03-24T15:05:48;2.13;;;1.63;;
8040;SDS011;4063;48.140;10.250;2023-03-24T15:10:51;1.50;;;1.40;;
8040;SDS011;4063;48.140;10.250;2023-03-24T15:13:32;1.60;;;1.50;;
8040;SDS011;4063;48.140;10.250;2023-03-24T15:16:02;2.80;;;1.70;;
8040;SDS011;4063;48.140;10.250;2023-03-24T15:18:30;4.07;;;1.67;;
8040;SDS011;4063;48.140;10.250;2023-03-24T15:20:56;2.73;;;1.80;;
8040;SDS011;4063;48.140;10.250;2023-03-24T15:23:24;2.27;;;1.73;;
8040;SDS011;4063;48.140;10.250;2023-03-24T15:25:50;2.57;;;2.00;;
8040;SDS011;4063;48.140;10.250;2023-03-24T15:28:24;1.73;;;1.63;;
8040;SDS011;4063;48.140;10.250;2023-03-24T15:30:50;4.23;;;1.93;;
8040;SDS011;4063;48.140;10.250;2023-03-24T15:33:17;2.00;;;1.80;;
8040;SDS011;4063;48.140;10.250;2023-03-24T15:35:44;2.63;;;1.80;;
8040;SDS011;4063;48.140;10.250;2023-03-24T15:38:17;2.80;;;2.00;;
8040;SDS011;4063;48.140;10.250;2023-03-24T15:40:50;1.87;;;1.50;;
8040;SDS011;4063;48.140;10.250;2023-03-24T15:43:18;2.23;;;1.93;;
8040;SDS011;4063;48.140;10.250;2023-03-24T15:45:48;3.77;;;1.70;;
8040;SDS011;4063;48.140;10.250;2023-03-24T15:48:18;2.20;;;1.70;;
8040;SDS011;4063;48.140;10.250;2023-03-24T15:50:55;1.87;;;1.77;;
8040;SDS011;4063;48.140;10.250;2023-03-24T15:53:23;3.57;;;1.97;;
8040;SDS011;4063;48.140;10.250;2023-03-24T15:56:00;2.30;;;1.70;;
8040;SDS011;4063;48.140;10.250;2023-03-24T15:58:28;2.20;;;1.70;;
8040;SDS011;4063;48.140;10.250;2023-03-24T16:00:58;2.97;;;1.90;;
8040;SDS011;4063;48.140;10.250;2023-03-24T16:03:25;2.30;;;2.07;;
8040;SDS011;4063;48.140;10.250;2023-03-24T16:05:52;1.77;;;1.67;;
8040;SDS011;4063;48.140;10.250;2023-03-24T16:08:31;2.37;;;2.13;;
8040;SDS011;4063;48.140;10.250;2023-03-24T16:11:03;3.30;;;2.17;;
8040;SDS011;4063;48.140;10.250;2023-03-24T16:13:31;2.53;;;1.97;;
8040;SDS011;4063;48.140;10.250;2023-03-24T16:16:00;2.27;;;1.90;;
8040;SDS011;4063;48.140;10.250;2023-03-24T16:18:31;2.00;;;1.73;;
8040;SDS011;4063;48.140;10.250;2023-03-24T16:20:58;2.07;;;1.80;;
8040;SDS011;4063;48.140;10.250;2023-03-24T16:23:25;2.23;;;1.90;;
8040;SDS011;4063;48.140;10.250;2023-03-24T16:25:51;2.33;;;2.00;;
8040;SDS011;4063;48.140;10.250;2023-03-24T16:28:18;2.07;;;1.97;;
8040;SDS011;4063;48.140;10.250;2023-03-24T16:30:45;3.13;;;2.00;;
8040;SDS011;4063;48.140;10.250;2023-03-24T16:33:14;3.10;;;2.10;;
8040;SDS011;4063;48.140;10.250;2023-03-24T16:35:41;2.07;;;1.90;;
8040;SDS011;4063;48.140;10.250;2023-03-24T16:38:08;4.63;;;1.90;;
8040;SDS011;4063;48.140;10.250;2023-03-24T16:43:00;3.33;;;2.90;;
8040;SDS011;4063;48.140;10.250;2023-03-24T16:45:27;6.23;;;4.53;;
8040;SDS011;4063;48.140;10.250;2023-03-24T16:47:53;4.37;;;3.63;;
8040;SDS011;4063;48.140;10.250;2023-03-24T16:52:58;14.07;;;6.83;;
8040;SDS011;4063;48.140;10.250;2023-03-24T16:55:24;56.00;;;27.10;;
8040;SDS011;4063;48.140;10.250;2023-03-24T16:57:50;7.60;;;4.90;;
8040;SDS011;4063;48.140;10.250;2023-03-24T17:00:17;7.13;;;3.77;;
8040;SDS011;4063;48.140;10.250;2023-03-24T17:02:43;19.87;;;13.13;;
8040;SDS011;4063;48.140;10.250;2023-03-24T17:07:48;3.57;;;2.47;;
8040;SDS011;4063;48.140;10.250;2023-03-24T17:10:15;7.57;;;4.67;;
8040;SDS011;4063;48.140;10.250;2023-03-24T17:12:41;4.70;;;4.00;;
8040;SDS011;4063;48.140;10.250;2023-03-24T17:15:40;3.23;;;2.77;;
8040;SDS011;4063;48.140;10.250;2023-03-24T17:17:59;2.57;;;2.37;;
8040;SDS011;4063;48.140;10.250;2023-03-24T17:20:26;2.40;;;2.20;;
8040;SDS011;4063;48.140;10.250;2023-03-24T17:22:53;2.70;;;2.30;;
8040;SDS011;4063;48.140;10.250;2023-03-24T17:25:21;3.23;;;2.27;;
8040;SDS011;4063;48.140;10.250;2023-03-24T17:27:47;4.50;;;2.40;;
8040;SDS011;4063;48.140;10.250;2023-03-24T17:30:14;3.00;;;2.70;;
8040;SDS011;4063;48.140;10.250;2023-03-24T17:32:40;2.60;;;2.30;;
8040;SDS011;4063;48.140;10.250;2023-03-24T17:35:09;3.07;;;2.10;;
8040;SDS011;4063;48.140;10.250;2023-03-24T17:37:35;2.50;;;2.30;;
8040;SDS011;4063;48.140;10.250;2023-03-24T17:40:02;3.50;;;2.40;;
8040;SDS011;4063;48.140;10.250;2023-03-24T17:42:31;2.83;;;2.10;;